createdAt,value
2023-04-18T00:01:59.727Z,10.06
2023-04-18T00:04:28.569Z,9.97
2023-04-18T00:06:56.949Z,9.81
2023-04-18T00:09:25.768Z,9.82
2023-04-18T00:11:54.255Z,9.77
2023-04-18T00:14:23.969Z,9.81
2023-04-18T00:16:54.340Z,9.85
2023-04-18T00:19:22.746Z,9.71
2023-04-18T00:21:53.283Z,9.74
2023-04-18T00:24:21.604Z,9.68
2023-04-18T00:26:50.108Z,9.67
2023-04-18T00:29:18.532Z,9.70
2023-04-18T00:31:48.461Z,9.62
2023-04-18T00:34:17.278Z,9.60
2023-04-18T00:36:46.980Z,9.50
2023-04-18T00:39:16.458Z,9.48
2023-04-18T00:41:44.783Z,9.50
2023-04-18T00:44:13.188Z,9.46
2023-04-18T00:46:41.663Z,9.44
2023-04-18T00:49:11.752Z,9.44
2023-04-18T00:51:41.175Z,9.44
2023-04-18T00:54:11.799Z,9.46
2023-04-18T00:56:40.814Z,9.45
2023-04-18T00:59:10.635Z,9.43
2023-04-18T01:01:40.575Z,9.42
2023-04-18T01:04:11.509Z,9.33
2023-04-18T01:06:44.137Z,9.29
2023-04-18T01:09:14.057Z,9.34
2023-04-18T01:11:42.332Z,9.38
2023-04-18T01:14:11.139Z,9.29
2023-04-18T01:16:40.111Z,9.29
2023-04-18T01:19:08.543Z,9.31
2023-04-18T01:21:43.841Z,9.24
2023-04-18T01:24:17.701Z,9.21
2023-04-18T01:26:48.517Z,9.25
2023-04-18T01:29:17.063Z,9.25
2023-04-18T01:31:46.088Z,9.21
2023-04-18T01:34:18.029Z,9.24
2023-04-18T01:36:47.398Z,9.25
2023-04-18T01:39:18.513Z,9.20
2023-04-18T01:41:47.133Z,9.27
2023-04-18T01:44:15.773Z,9.32
2023-04-18T01:46:47.385Z,9.26
2023-04-18T01:49:16.231Z,9.27
2023-04-18T01:51:44.476Z,9.22
2023-04-18T01:54:13.020Z,9.21
2023-04-18T01:56:42.897Z,9.19
2023-04-18T01:59:11.360Z,9.26
2023-04-18T02:01:40.081Z,9.20
2023-04-18T02:04:08.501Z,9.10
2023-04-18T02:06:36.997Z,9.14
2023-04-18T02:09:06.113Z,9.13
2023-04-18T02:11:34.422Z,9.19
2023-04-18T02:14:06.618Z,9.19
2023-04-18T02:16:35.427Z,9.12
2023-04-18T02:19:04.420Z,9.11
2023-04-18T02:21:32.727Z,9.05
2023-04-18T02:24:01.049Z,9.08
2023-04-18T02:26:29.374Z,9.04
2023-04-18T02:28:59.889Z,8.96
2023-04-18T02:31:33.290Z,8.91
2023-04-18T02:34:01.591Z,9.01
2023-04-18T02:36:29.868Z,8.98
2023-04-18T02:38:58.240Z,9.06
2023-04-18T02:41:26.903Z,8.95
2023-04-18T02:43:56.413Z,8.98
2023-04-18T02:46:26.048Z,8.86
2023-04-18T02:48:55.943Z,8.88
2023-04-18T02:51:26.908Z,8.82
2023-04-18T02:53:57.413Z,8.83
2023-04-18T02:56:29.889Z,8.92
2023-04-18T02:59:19.521Z,8.85
2023-04-18T03:02:09.208Z,8.83
2023-04-18T03:04:42.827Z,8.78
2023-04-18T03:07:11.687Z,8.72
2023-04-18T03:09:40.909Z,8.81
2023-04-18T03:12:18.578Z,8.79
2023-04-18T03:14:47.768Z,8.77
2023-04-18T03:17:16.498Z,8.69
2023-04-18T03:19:50.609Z,8.76
2023-04-18T03:22:21.206Z,8.80
2023-04-18T03:24:57.768Z,8.79
2023-04-18T03:27:41.014Z,8.82
2023-04-18T03:30:10.487Z,8.85
2023-04-18T03:32:42.288Z,8.83
2023-04-18T03:35:12.680Z,8.80
2023-04-18T03:37:41.141Z,8.76
2023-04-18T03:40:12.876Z,8.84
2023-04-18T03:42:42.965Z,8.83
2023-04-18T03:45:12.905Z,8.82
2023-04-18T03:47:41.912Z,8.88
2023-04-18T03:50:12.138Z,8.86
2023-04-18T03:52:42.325Z,8.87
2023-04-18T03:55:11.484Z,8.86
2023-04-18T03:57:41.418Z,8.85
2023-04-18T04:00:15.859Z,8.82
2023-04-18T04:02:44.383Z,8.77
2023-04-18T04:05:21.018Z,8.77
2023-04-18T04:07:50.680Z,8.78
2023-04-18T04:10:19.626Z,8.81
2023-04-18T04:12:49.385Z,8.77
2023-04-18T04:15:18.318Z,8.69
2023-04-18T04:17:52.892Z,8.62
2023-04-18T04:20:24.859Z,8.59
2023-04-18T04:23:00.956Z,8.52
2023-04-18T04:25:30.033Z,8.58
2023-04-18T04:28:02.976Z,8.53
2023-04-18T04:30:35.916Z,8.68
2023-04-18T04:33:04.362Z,8.82
2023-04-18T04:35:34.910Z,8.80
2023-04-18T04:38:03.936Z,8.85
2023-04-18T04:40:39.900Z,8.89
2023-04-18T04:43:15.660Z,9.07
2023-04-18T04:45:46.017Z,9.09
2023-04-18T04:48:14.498Z,9.19
2023-04-18T04:50:53.119Z,9.12
2023-04-18T04:53:21.596Z,9.10
2023-04-18T04:55:50.265Z,9.17
2023-04-18T04:58:19.480Z,9.21
2023-04-18T05:01:12.492Z,9.27
2023-04-18T05:03:41.852Z,9.33
2023-04-18T05:06:11.869Z,9.37
2023-04-18T05:08:40.221Z,9.40
2023-04-18T05:11:08.459Z,9.47
2023-04-18T05:13:36.719Z,9.33
2023-04-18T05:16:05.982Z,9.33
2023-04-18T05:18:35.097Z,9.35
2023-04-18T05:21:03.478Z,9.38
2023-04-18T05:23:34.986Z,9.38
2023-04-18T05:26:03.582Z,9.39
2023-04-18T05:28:31.924Z,9.50
2023-04-18T05:31:02.355Z,9.54
2023-04-18T05:33:31.221Z,9.44
2023-04-18T05:36:00.180Z,9.46
2023-04-18T05:38:28.693Z,9.54
2023-04-18T05:41:00.429Z,9.53
2023-04-18T05:43:28.964Z,9.57
2023-04-18T05:45:57.956Z,9.54
2023-04-18T05:48:26.404Z,9.47
2023-04-18T05:50:54.958Z,9.44
2023-04-18T05:53:23.345Z,9.34
2023-04-18T05:55:51.677Z,9.45
2023-04-18T05:58:21.339Z,9.39
2023-04-18T06:00:49.682Z,9.35
2023-04-18T06:03:18.051Z,9.43
2023-04-18T06:05:46.673Z,9.51
2023-04-18T06:08:14.967Z,9.63
2023-04-18T06:10:43.224Z,9.91
2023-04-18T06:13:12.624Z,10.48
2023-04-18T06:15:42.250Z,11.06
2023-04-18T06:18:10.595Z,11.76
2023-04-18T06:20:38.945Z,12.13
2023-04-18T06:23:08.242Z,12.32
2023-04-18T06:25:39.096Z,12.42
2023-04-18T06:28:07.353Z,12.81
2023-04-18T06:30:35.936Z,13.34
2023-04-18T06:33:06.196Z,13.67
2023-04-18T06:35:34.451Z,13.85
2023-04-18T06:38:03.265Z,14.09
2023-04-18T06:40:31.612Z,14.28
2023-04-18T06:42:59.817Z,14.39
2023-04-18T06:45:31.260Z,14.55
2023-04-18T06:48:00.180Z,14.33
2023-04-18T06:50:31.030Z,13.91
2023-04-18T06:52:59.346Z,14.08
2023-04-18T06:55:27.673Z,14.32
2023-04-18T06:57:56.252Z,14.91
2023-04-18T07:00:24.524Z,15.26
2023-04-18T07:02:53.024Z,15.28
2023-04-18T07:05:21.468Z,15.62
2023-04-18T07:07:51.352Z,15.50
2023-04-18T07:10:20.205Z,15.64
2023-04-18T07:12:48.686Z,16.14
2023-04-18T07:15:17.113Z,15.92
2023-04-18T07:17:45.313Z,15.52
2023-04-18T07:20:14.448Z,15.37
2023-04-18T07:22:43.225Z,14.41
2023-04-18T07:25:13.195Z,13.91
2023-04-18T07:27:41.602Z,13.22
2023-04-18T07:30:10.902Z,13.10
2023-04-18T07:32:39.385Z,13.53
2023-04-18T07:35:08.142Z,13.72
2023-04-18T07:37:36.606Z,14.48
2023-04-18T07:40:05.878Z,14.83
2023-04-18T07:42:36.248Z,14.69
2023-04-18T07:45:04.864Z,14.63
2023-04-18T07:47:33.593Z,14.79
2023-04-18T07:50:02.467Z,14.94
2023-04-18T07:52:30.868Z,15.17
2023-04-18T07:54:59.450Z,15.23
2023-04-18T07:57:27.695Z,14.76
2023-04-18T07:59:57.396Z,14.42
2023-04-18T08:02:25.905Z,14.19
2023-04-18T08:04:56.461Z,14.22
2023-04-18T08:07:25.012Z,14.05
2023-04-18T08:09:53.432Z,13.72
2023-04-18T08:12:21.886Z,13.64
2023-04-18T08:14:50.444Z,13.49
2023-04-18T08:17:20.428Z,13.34
2023-04-18T08:19:48.728Z,13.36
2023-04-18T08:22:16.992Z,13.42
2023-04-18T08:25:00.952Z,13.05
2023-04-18T08:27:31.932Z,13.57
2023-04-18T08:30:00.672Z,13.42
2023-04-18T08:32:30.569Z,13.34
2023-04-18T08:34:58.982Z,12.92
2023-04-18T08:37:28.098Z,12.95
2023-04-18T08:39:56.673Z,12.96
2023-04-18T08:42:25.321Z,13.00
2023-04-18T08:44:54.112Z,13.03
2023-04-18T08:47:22.479Z,13.05
2023-04-18T08:49:53.693Z,13.32
2023-04-18T08:52:23.843Z,13.39
2023-04-18T08:54:52.618Z,13.64
2023-04-18T08:57:26.956Z,14.13
2023-04-18T08:59:55.754Z,15.16
2023-04-18T09:02:39.113Z,15.24
2023-04-18T09:05:14.801Z,14.69
2023-04-18T09:07:43.972Z,14.89
2023-04-18T09:10:13.924Z,14.64
2023-04-18T09:12:50.429Z,15.15
2023-04-18T09:15:22.647Z,16.08
2023-04-18T09:17:54.185Z,16.09
2023-04-18T09:20:34.690Z,16.56
2023-04-18T09:23:05.058Z,16.78
2023-04-18T09:25:36.148Z,16.85
2023-04-18T09:28:05.977Z,17.07
2023-04-18T09:30:38.152Z,17.50
2023-04-18T09:33:07.873Z,16.87
2023-04-18T09:35:38.470Z,16.04
2023-04-18T09:38:07.711Z,16.09
2023-04-18T09:40:36.161Z,16.56
2023-04-18T09:43:19.464Z,16.54
2023-04-18T09:45:48.837Z,16.34
2023-04-18T09:48:17.214Z,16.75
2023-04-18T09:50:49.616Z,16.20
2023-04-18T09:53:21.010Z,15.69
2023-04-18T09:55:53.297Z,15.82
2023-04-18T09:58:23.709Z,15.68
2023-04-18T10:00:54.515Z,16.12
2023-04-18T10:03:25.311Z,16.38
2023-04-18T10:05:57.964Z,16.23
2023-04-18T10:08:27.577Z,16.00
2023-04-18T10:10:58.747Z,15.79
2023-04-18T10:13:29.023Z,15.39
2023-04-18T10:15:57.921Z,15.28
2023-04-18T10:18:27.756Z,15.49
2023-04-18T10:21:04.422Z,16.14
2023-04-18T10:23:37.198Z,16.23
2023-04-18T10:26:06.230Z,16.17
2023-04-18T10:28:55.257Z,16.45
2023-04-18T10:31:24.396Z,16.99
2023-04-18T10:34:04.622Z,17.46
2023-04-18T10:36:36.049Z,17.61
2023-04-18T10:39:22.061Z,16.99
2023-04-18T10:41:51.595Z,17.25
2023-04-18T10:44:24.331Z,17.44
2023-04-18T10:47:32.425Z,17.26
2023-04-18T10:50:06.180Z,17.07
2023-04-18T10:52:38.762Z,16.40
2023-04-18T10:55:16.603Z,16.11
2023-04-18T10:57:46.714Z,15.91
2023-04-18T11:00:17.440Z,16.23
2023-04-18T11:02:57.933Z,16.12
2023-04-18T11:05:28.145Z,16.15
2023-04-18T11:07:57.761Z,16.42
2023-04-18T11:10:27.885Z,16.78
2023-04-18T11:12:57.498Z,16.97
2023-04-18T11:15:28.011Z,16.71
2023-04-18T11:18:00.017Z,16.93
2023-04-18T11:20:29.474Z,17.25
2023-04-18T11:23:00.781Z,17.28
2023-04-18T11:25:30.915Z,17.17
2023-04-18T11:28:00.973Z,17.30
2023-04-18T11:30:31.436Z,17.32
2023-04-18T11:32:59.826Z,16.91
2023-04-18T11:35:28.292Z,16.92
2023-04-18T11:37:58.035Z,16.81
2023-04-18T11:40:26.807Z,16.98
2023-04-18T11:42:56.510Z,16.57
2023-04-18T11:45:24.824Z,16.16
2023-04-18T11:47:58.346Z,16.39
2023-04-18T11:50:27.196Z,16.93
2023-04-18T11:52:56.545Z,17.54
2023-04-18T11:55:27.358Z,17.41
2023-04-18T11:57:57.022Z,17.32
2023-04-18T12:00:33.980Z,17.21
2023-04-18T12:03:04.607Z,16.91
2023-04-18T12:05:34.797Z,16.86
2023-04-18T12:08:12.009Z,16.97
2023-04-18T12:10:48.504Z,17.29
2023-04-18T12:13:16.845Z,17.36
2023-04-18T12:15:46.808Z,17.65
2023-04-18T12:18:19.822Z,17.85
2023-04-18T12:20:50.675Z,17.56
2023-04-18T12:23:33.006Z,16.99
2023-04-18T12:26:03.955Z,17.16
2023-04-18T12:28:32.948Z,17.26
2023-04-18T12:31:01.305Z,17.41
2023-04-18T12:33:29.710Z,17.17
2023-04-18T12:35:57.984Z,17.23
2023-04-18T12:38:27.225Z,16.73
2023-04-18T12:40:55.562Z,16.84
2023-04-18T12:43:25.813Z,17.00
2023-04-18T12:45:54.434Z,16.99
2023-04-18T12:48:22.689Z,17.14
2023-04-18T12:50:51.010Z,16.94
2023-04-18T12:53:19.152Z,16.95
2023-04-18T12:55:47.803Z,17.00
2023-04-18T12:58:18.838Z,17.53
2023-04-18T13:00:49.212Z,17.88
2023-04-18T13:03:17.694Z,17.74
2023-04-18T13:05:47.090Z,17.65
2023-04-18T13:08:17.607Z,17.53
2023-04-18T13:10:47.763Z,17.22
2023-04-18T13:13:16.280Z,17.42
2023-04-18T13:15:44.531Z,17.09
2023-04-18T13:18:14.187Z,16.76
2023-04-18T13:20:42.353Z,16.64
2023-04-18T13:23:11.637Z,16.79
2023-04-18T13:25:40.305Z,16.90
2023-04-18T13:28:08.529Z,17.47
2023-04-18T13:30:36.868Z,17.17
2023-04-18T13:33:05.473Z,17.44
2023-04-18T13:35:35.263Z,17.82
2023-04-18T13:38:04.079Z,18.11
2023-04-18T13:40:33.547Z,18.03
2023-04-18T13:43:02.166Z,17.39
2023-04-18T13:45:30.517Z,17.39
2023-04-18T13:47:58.887Z,17.34
2023-04-18T13:50:28.233Z,17.55
2023-04-18T13:52:57.855Z,17.28
2023-04-18T13:55:26.373Z,17.24
2023-04-18T13:57:55.022Z,17.21
2023-04-18T14:00:23.521Z,17.25
2023-04-18T14:02:52.027Z,17.10
2023-04-18T14:05:20.554Z,17.25
2023-04-18T14:07:49.928Z,17.19
2023-04-18T14:10:20.205Z,16.69
2023-04-18T14:12:48.480Z,16.56
2023-04-18T14:15:16.944Z,16.75
2023-04-18T14:17:46.035Z,17.08
2023-04-18T14:20:15.757Z,17.38
2023-04-18T14:22:44.059Z,17.41
2023-04-18T14:25:12.536Z,16.65
2023-04-18T14:27:42.566Z,16.66
2023-04-18T14:30:12.121Z,16.86
2023-04-18T14:32:40.646Z,17.17
2023-04-18T14:35:11.276Z,17.28
2023-04-18T14:37:39.855Z,16.88
2023-04-18T14:40:10.102Z,17.17
2023-04-18T14:42:38.966Z,16.90
2023-04-18T14:45:11.409Z,16.96
2023-04-18T14:47:40.289Z,16.50
2023-04-18T14:50:11.905Z,16.62
2023-04-18T14:52:40.448Z,16.47
2023-04-18T14:55:09.938Z,16.38
2023-04-18T14:57:39.327Z,16.73
2023-04-18T15:00:12.651Z,17.15
2023-04-18T15:02:43.340Z,17.47
2023-04-18T15:05:13.455Z,17.56
2023-04-18T15:07:43.583Z,17.32
2023-04-18T15:10:13.185Z,17.21
2023-04-18T15:12:41.831Z,17.29
2023-04-18T15:15:12.517Z,17.26
2023-04-18T15:17:41.093Z,17.00
2023-04-18T15:20:10.780Z,16.82
2023-04-18T15:22:39.079Z,16.50
2023-04-18T15:25:08.352Z,16.59
2023-04-18T15:27:37.032Z,16.39
2023-04-18T15:30:08.760Z,16.02
2023-04-18T15:32:40.384Z,15.94
2023-04-18T15:35:09.637Z,15.75
2023-04-18T15:37:38.118Z,15.89
2023-04-18T15:40:09.771Z,16.01
2023-04-18T15:42:38.252Z,16.09
2023-04-18T15:45:08.539Z,16.04
2023-04-18T15:47:38.847Z,15.88
2023-04-18T15:50:09.351Z,15.85
2023-04-18T15:52:37.760Z,15.59
2023-04-18T15:55:07.183Z,15.61
2023-04-18T15:57:36.548Z,15.58
2023-04-18T16:00:10.470Z,15.45
2023-04-18T16:02:40.223Z,15.58
2023-04-18T16:05:09.534Z,15.81
2023-04-18T16:07:37.664Z,15.71
2023-04-18T16:10:08.666Z,15.55
2023-04-18T16:12:37.243Z,15.45
2023-04-18T16:15:07.075Z,15.48
2023-04-18T16:17:35.772Z,15.48
2023-04-18T16:20:08.566Z,15.64
2023-04-18T16:22:36.994Z,15.79
2023-04-18T16:25:05.583Z,15.90
2023-04-18T16:27:33.855Z,15.99
2023-04-18T16:30:02.187Z,15.98
2023-04-18T16:32:30.746Z,15.80
2023-04-18T16:34:59.265Z,15.61
2023-04-18T16:37:29.122Z,15.45
2023-04-18T16:39:57.446Z,15.59
2023-04-18T16:42:25.902Z,15.64
2023-04-18T16:44:54.239Z,15.52
2023-04-18T16:47:22.551Z,15.29
2023-04-18T16:49:51.731Z,15.12
2023-04-18T16:52:20.044Z,14.99
2023-04-18T16:54:51.962Z,14.89
2023-04-18T16:57:21.057Z,14.75
2023-04-18T16:59:49.337Z,14.67
2023-04-18T17:02:17.904Z,14.72
2023-04-18T17:04:46.349Z,14.69
2023-04-18T17:07:14.573Z,14.45
2023-04-18T17:09:44.428Z,14.30
2023-04-18T17:12:14.693Z,14.13
2023-04-18T17:14:43.061Z,14.06
2023-04-18T17:17:11.491Z,14.12
2023-04-18T17:19:40.423Z,14.07
2023-04-18T17:22:08.799Z,13.88
2023-04-18T17:24:37.195Z,13.93
2023-04-18T17:27:05.571Z,14.06
2023-04-18T17:29:35.372Z,13.77
2023-04-18T17:32:03.799Z,13.66
2023-04-18T17:34:32.557Z,13.53
2023-04-18T17:37:01.054Z,13.56
2023-04-18T17:39:29.357Z,13.57
2023-04-18T17:41:57.704Z,13.46
2023-04-18T17:44:26.099Z,13.48
2023-04-18T17:46:56.002Z,13.38
2023-04-18T17:49:24.617Z,13.33
2023-04-18T17:51:52.843Z,13.27
2023-04-18T17:54:22.135Z,13.23
2023-04-18T17:56:50.563Z,13.05
2023-04-18T17:59:18.894Z,12.83
2023-04-18T18:01:47.455Z,12.76
2023-04-18T18:04:17.506Z,12.66
2023-04-18T18:06:55.054Z,12.66
2023-04-18T18:09:23.641Z,12.55
2023-04-18T18:12:33.187Z,12.67
2023-04-18T18:15:15.161Z,12.66
2023-04-18T18:18:21.688Z,12.42
2023-04-18T18:20:47.920Z,12.43
2023-04-18T18:23:20.047Z,12.40
2023-04-18T18:26:06.738Z,12.24
2023-04-18T18:28:44.850Z,12.18
2023-04-18T18:31:58.614Z,12.16
2023-04-18T18:34:40.175Z,12.19
2023-04-18T18:37:51.956Z,12.12
2023-04-18T18:40:42.779Z,12.05
2023-04-18T18:46:09.429Z,11.93
2023-04-18T18:48:59.159Z,11.75
2023-04-18T18:52:13.324Z,11.72
2023-04-18T18:54:43.022Z,11.63
2023-04-18T18:57:11.456Z,11.59
2023-04-18T18:59:39.681Z,11.57
2023-04-18T19:02:08.472Z,11.55
2023-04-18T19:04:37.222Z,11.52
2023-04-18T19:07:06.176Z,11.54
2023-04-18T19:09:34.497Z,11.40
2023-04-18T19:12:04.527Z,11.32
2023-04-18T19:14:33.020Z,11.27
2023-04-18T19:17:01.481Z,11.24
2023-04-18T19:19:29.775Z,11.18
2023-04-18T19:21:58.124Z,11.16
2023-04-18T19:24:26.553Z,11.12
2023-04-18T19:26:54.767Z,11.14
2023-04-18T19:29:25.276Z,10.99
2023-04-18T19:31:53.888Z,10.99
2023-04-18T19:34:22.324Z,10.90
2023-04-18T19:36:51.035Z,10.90
2023-04-18T19:39:22.305Z,10.81
2023-04-18T19:41:50.670Z,10.87
2023-04-18T19:44:18.962Z,10.80
2023-04-18T19:46:50.109Z,10.82
2023-04-18T19:49:18.537Z,10.72
2023-04-18T19:51:46.774Z,10.71
2023-04-18T19:54:15.056Z,10.72
2023-04-18T19:56:46.040Z,10.65
2023-04-18T19:59:14.980Z,10.65
2023-04-18T20:01:43.490Z,10.60
2023-04-18T20:04:17.652Z,10.55
2023-04-18T20:06:46.221Z,10.52
2023-04-18T20:09:16.994Z,10.48
2023-04-18T20:11:46.640Z,10.40
2023-04-18T20:14:15.043Z,10.41
2023-04-18T20:16:46.784Z,10.41
2023-04-18T20:19:19.636Z,10.43
2023-04-18T20:21:48.065Z,10.39
2023-04-18T20:24:16.364Z,10.37
2023-04-18T20:26:46.739Z,10.35
2023-04-18T20:29:15.360Z,10.34
2023-04-18T20:31:43.855Z,10.37
2023-04-18T20:34:12.315Z,10.29
2023-04-18T20:36:43.549Z,10.30
2023-04-18T20:39:13.489Z,10.23
2023-04-18T20:41:46.569Z,10.21
2023-04-18T20:44:17.480Z,10.26
2023-04-18T20:46:46.057Z,10.28
2023-04-18T20:49:14.667Z,10.26
2023-04-18T20:51:44.659Z,10.23
2023-04-18T20:54:13.592Z,10.18
2023-04-18T20:56:42.139Z,10.10
2023-04-18T20:59:12.856Z,10.11
2023-04-18T21:01:41.293Z,10.04
2023-04-18T21:04:09.926Z,9.97
2023-04-18T21:06:38.394Z,9.93
2023-04-18T21:09:17.360Z,9.96
2023-04-18T21:11:45.893Z,9.94
2023-04-18T21:14:14.320Z,9.88
2023-04-18T21:16:42.903Z,9.86
2023-04-18T21:19:12.287Z,9.86
2023-04-18T21:21:40.685Z,9.82
2023-04-18T21:24:11.183Z,9.84
2023-04-18T21:26:39.587Z,9.86
2023-04-18T21:29:07.957Z,9.81
2023-04-18T21:31:36.751Z,9.77
2023-04-18T21:34:06.469Z,9.69
2023-04-18T21:36:35.052Z,9.66
2023-04-18T21:39:04.123Z,9.68
2023-04-18T21:41:33.933Z,9.61
2023-04-18T21:44:02.380Z,9.64
2023-04-18T21:46:30.598Z,9.59
2023-04-18T21:48:58.924Z,9.58
2023-04-18T21:51:27.327Z,9.57
2023-04-18T21:53:55.660Z,9.57
2023-04-18T21:56:23.948Z,9.53
2023-04-18T21:58:53.670Z,9.52
2023-04-18T22:01:22.137Z,9.49
2023-04-18T22:03:50.801Z,9.48
2023-04-18T22:06:20.831Z,9.52
2023-04-18T22:08:50.028Z,9.44
2023-04-18T22:11:18.842Z,9.42
2023-04-18T22:13:47.524Z,9.45
2023-04-18T22:16:18.054Z,9.43
2023-04-18T22:18:46.416Z,9.46
2023-04-18T22:21:14.787Z,9.44
2023-04-18T22:23:43.063Z,9.40
2023-04-18T22:26:11.295Z,9.33
2023-04-18T22:28:39.761Z,9.38
2023-04-18T22:31:08.488Z,9.34
2023-04-18T22:33:38.249Z,9.31
2023-04-18T22:36:07.270Z,9.28
2023-04-18T22:38:35.677Z,9.25
2023-04-18T22:41:03.933Z,9.23
2023-04-18T22:43:32.489Z,9.17
2023-04-18T22:46:00.823Z,9.10
2023-04-18T22:48:30.137Z,9.07
2023-04-18T22:51:01.985Z,9.09
2023-04-18T22:53:30.583Z,9.09
2023-04-18T22:55:58.760Z,9.08
2023-04-18T22:58:27.138Z,9.04
2023-04-18T23:00:55.977Z,9.05
2023-04-18T23:03:24.552Z,9.01
2023-04-18T23:05:53.023Z,9.03
2023-04-18T23:08:22.925Z,9.03
2023-04-18T23:10:51.231Z,9.00
2023-04-18T23:13:19.523Z,9.01
2023-04-18T23:15:48.069Z,9.01
2023-04-18T23:18:16.731Z,9.03
2023-04-18T23:20:44.942Z,9.02
2023-04-18T23:23:13.269Z,8.94
2023-04-18T23:25:42.900Z,8.94
2023-04-18T23:28:11.133Z,8.95
2023-04-18T23:30:39.364Z,8.89
2023-04-18T23:33:08.594Z,8.92
2023-04-18T23:35:36.818Z,8.90
2023-04-18T23:38:05.596Z,8.85
2023-04-18T23:40:33.940Z,8.83
2023-04-18T23:43:03.981Z,8.77
2023-04-18T23:45:32.348Z,8.76
2023-04-18T23:48:01.244Z,8.78
2023-04-18T23:50:29.649Z,8.81
2023-04-18T23:52:58.023Z,8.82
2023-04-18T23:55:26.422Z,8.83
2023-04-18T23:57:54.778Z,8.72
